sensor_id;sensor_type;location;lat;lon;timestamp;temperature;humidity
21551;DHT22;10936;49.836;7.078;2022-12-10T00:01:57;19.30;93.50
21551;DHT22;10936;49.836;7.078;2022-12-10T00:04:22;19.30;93.50
21551;DHT22;10936;49.836;7.078;2022-12-10T00:06:48;19.30;93.50
21551;DHT22;10936;49.836;7.078;2022-12-10T00:09:16;19.30;93.50
21551;DHT22;10936;49.836;7.078;2022-12-10T00:11:42;19.30;93.50
21551;DHT22;10936;49.836;7.078;2022-12-10T00:14:07;19.30;93.80
21551;DHT22;10936;49.836;7.078;2022-12-10T00:16:33;19.30;93.50
21551;DHT22;10936;49.836;7.078;2022-12-10T00:18:59;19.30;93.50
21551;DHT22;10936;49.836;7.078;2022-12-10T00:21:28;19.30;93.50
21551;DHT22;10936;49.836;7.078;2022-12-10T00:23:54;19.30;93.50
21551;DHT22;10936;49.836;7.078;2022-12-10T00:26:22;19.30;93.50
21551;DHT22;10936;49.836;7.078;2022-12-10T00:28:48;19.30;93.50
21551;DHT22;10936;49.836;7.078;2022-12-10T00:31:20;19.30;93.50
21551;DHT22;10936;49.836;7.078;2022-12-10T00:33:46;19.30;93.50
21551;DHT22;10936;49.836;7.078;2022-12-10T00:36:18;19.30;93.50
21551;DHT22;10936;49.836;7.078;2022-12-10T00:38:44;19.30;93.50
21551;DHT22;10936;49.836;7.078;2022-12-10T00:41:12;19.30;93.50
21551;DHT22;10936;49.836;7.078;2022-12-10T00:43:38;19.30;93.50
21551;DHT22;10936;49.836;7.078;2022-12-10T00:46:04;19.30;93.50
21551;DHT22;10936;49.836;7.078;2022-12-10T00:48:30;19.20;93.40
21551;DHT22;10936;49.836;7.078;2022-12-10T00:51:33;19.30;93.50
21551;DHT22;10936;49.836;7.078;2022-12-10T00:53:53;19.20;93.40
21551;DHT22;10936;49.836;7.078;2022-12-10T00:56:22;19.30;93.50
21551;DHT22;10936;49.836;7.078;2022-12-10T00:58:49;19.20;93.50
21551;DHT22;10936;49.836;7.078;2022-12-10T06:01:13;18.90;93.20
21551;DHT22;10936;49.836;7.078;2022-12-10T06:03:39;18.90;93.20
21551;DHT22;10936;49.836;7.078;2022-12-10T06:06:05;18.90;93.20
21551;DHT22;10936;49.836;7.078;2022-12-10T06:08:31;18.90;93.20
21551;DHT22;10936;49.836;7.078;2022-12-10T06:11:08;18.90;93.20
21551;DHT22;10936;49.836;7.078;2022-12-10T06:13:34;18.90;93.20
21551;DHT22;10936;49.836;7.078;2022-12-10T06:16:08;18.90;93.20
21551;DHT22;10936;49.836;7.078;2022-12-10T06:18:34;18.90;93.20
21551;DHT22;10936;49.836;7.078;2022-12-10T06:21:03;18.90;93.20
21551;DHT22;10936;49.836;7.078;2022-12-10T06:23:29;18.90;93.20
21551;DHT22;10936;49.836;7.078;2022-12-10T06:25:55;18.90;93.20
21551;DHT22;10936;49.836;7.078;2022-12-10T06:28:20;18.90;93.20
21551;DHT22;10936;49.836;7.078;2022-12-10T06:30:46;18.90;93.20
21551;DHT22;10936;49.836;7.078;2022-12-10T06:33:11;18.90;93.20
21551;DHT22;10936;49.836;7.078;2022-12-10T06:35:37;18.90;93.20
21551;DHT22;10936;49.836;7.078;2022-12-10T06:38:03;18.80;93.20
21551;DHT22;10936;49.836;7.078;2022-12-10T06:40:29;18.90;93.20
21551;DHT22;10936;49.836;7.078;2022-12-10T06:42:54;18.90;93.20
21551;DHT22;10936;49.836;7.078;2022-12-10T06:45:20;18.90;93.20
21551;DHT22;10936;49.836;7.078;2022-12-10T06:47:45;18.90;93.20
21551;DHT22;10936;49.836;7.078;2022-12-10T06:50:11;18.90;93.20
21551;DHT22;10936;49.836;7.078;2022-12-10T06:52:36;18.90;93.20
21551;DHT22;10936;49.836;7.078;2022-12-10T06:55:02;18.90;93.20
21551;DHT22;10936;49.836;7.078;2022-12-10T06:57:28;18.90;93.20
21551;DHT22;10936;49.836;7.078;2022-12-10T06:59:53;18.90;93.20
21551;DHT22;10936;49.836;7.078;2022-12-10T07:02:19;18.90;93.20
21551;DHT22;10936;49.836;7.078;2022-12-10T07:04:44;18.90;93.10
21551;DHT22;10936;49.836;7.078;2022-12-10T07:07:10;18.90;93.10
21551;DHT22;10936;49.836;7.078;2022-12-10T07:09:35;18.90;93.20
21551;DHT22;10936;49.836;7.078;2022-12-10T07:12:01;18.90;93.20
21551;DHT22;10936;49.836;7.078;2022-12-10T07:14:27;18.90;93.60
21551;DHT22;10936;49.836;7.078;2022-12-10T07:16:52;18.90;93.30
21551;DHT22;10936;49.836;7.078;2022-12-10T07:19:18;18.90;93.30
21551;DHT22;10936;49.836;7.078;2022-12-10T07:21:44;18.90;93.30
21551;DHT22;10936;49.836;7.078;2022-12-10T07:24:14;18.90;93.30
21551;DHT22;10936;49.836;7.078;2022-12-10T07:26:42;18.90;93.30
21551;DHT22;10936;49.836;7.078;2022-12-10T07:29:18;18.90;93.30
21551;DHT22;10936;49.836;7.078;2022-12-10T07:31:44;19.00;93.60
21551;DHT22;10936;49.836;7.078;2022-12-10T07:34:10;19.00;93.30
21551;DHT22;10936;49.836;7.078;2022-12-10T07:36:36;19.00;93.30
21551;DHT22;10936;49.836;7.078;2022-12-10T07:39:05;19.00;93.30
21551;DHT22;10936;49.836;7.078;2022-12-10T07:41:30;19.00;93.30
21551;DHT22;10936;49.836;7.078;2022-12-10T07:43:56;19.00;93.30
21551;DHT22;10936;49.836;7.078;2022-12-10T07:46:25;19.00;93.20
21551;DHT22;10936;49.836;7.078;2022-12-10T07:48:50;19.00;93.20
21551;DHT22;10936;49.836;7.078;2022-12-10T07:51:18;19.00;93.20
21551;DHT22;10936;49.836;7.078;2022-12-10T07:53:44;19.00;93.10
21551;DHT22;10936;49.836;7.078;2022-12-10T07:56:10;19.00;93.10
21551;DHT22;10936;49.836;7.078;2022-12-10T07:58:36;19.00;93.00
21551;DHT22;10936;49.836;7.078;2022-12-10T08:01:14;19.00;93.00
21551;DHT22;10936;49.836;7.078;2022-12-10T08:03:40;19.00;92.90
21551;DHT22;10936;49.836;7.078;2022-12-10T08:06:12;19.10;93.00
21551;DHT22;10936;49.836;7.078;2022-12-10T08:08:39;19.10;92.90
21551;DHT22;10936;49.836;7.078;2022-12-10T08:11:06;19.00;92.80
21551;DHT22;10936;49.836;7.078;2022-12-10T08:13:32;19.00;92.80
21551;DHT22;10936;49.836;7.078;2022-12-10T08:16:06;19.00;92.80
21551;DHT22;10936;49.836;7.078;2022-12-10T08:18:33;19.00;92.70
21551;DHT22;10936;49.836;7.078;2022-12-10T08:21:02;19.10;92.70
21551;DHT22;10936;49.836;7.078;2022-12-10T08:23:28;19.00;92.70
21551;DHT22;10936;49.836;7.078;2022-12-10T08:25:53;19.00;92.70
21551;DHT22;10936;49.836;7.078;2022-12-10T08:28:19;19.00;92.60
21551;DHT22;10936;49.836;7.078;2022-12-10T08:30:48;19.00;92.60
21551;DHT22;10936;49.836;7.078;2022-12-10T08:33:14;19.00;92.60
21551;DHT22;10936;49.836;7.078;2022-12-10T08:35:39;19.00;92.60
21551;DHT22;10936;49.836;7.078;2022-12-10T08:38:05;19.10;92.60
21551;DHT22;10936;49.836;7.078;2022-12-10T08:40:30;19.00;92.60
21551;DHT22;10936;49.836;7.078;2022-12-10T08:42:56;19.00;92.60
21551;DHT22;10936;49.836;7.078;2022-12-10T08:45:22;19.10;92.60
21551;DHT22;10936;49.836;7.078;2022-12-10T08:47:47;19.00;92.50
21551;DHT22;10936;49.836;7.078;2022-12-10T08:50:13;19.00;92.50
21551;DHT22;10936;49.836;7.078;2022-12-10T08:52:38;19.00;92.50
21551;DHT22;10936;49.836;7.078;2022-12-10T08:55:04;19.00;92.50
21551;DHT22;10936;49.836;7.078;2022-12-10T08:57:30;19.00;92.50
21551;DHT22;10936;49.836;7.078;2022-12-10T08:59:55;19.10;92.50
21551;DHT22;10936;49.836;7.078;2022-12-10T09:02:21;19.00;92.50
21551;DHT22;10936;49.836;7.078;2022-12-10T09:04:46;19.00;92.50
21551;DHT22;10936;49.836;7.078;2022-12-10T09:07:12;19.10;92.50
21551;DHT22;10936;49.836;7.078;2022-12-10T09:09:38;19.00;92.50
21551;DHT22;10936;49.836;7.078;2022-12-10T09:12:04;19.00;92.50
21551;DHT22;10936;49.836;7.078;2022-12-10T09:14:29;19.00;92.50
21551;DHT22;10936;49.836;7.078;2022-12-10T09:16:55;19.00;92.50
21551;DHT22;10936;49.836;7.078;2022-12-10T09:19:20;19.10;92.50
21551;DHT22;10936;49.836;7.078;2022-12-10T09:21:46;19.10;92.50
21551;DHT22;10936;49.836;7.078;2022-12-10T09:24:12;19.10;92.50
21551;DHT22;10936;49.836;7.078;2022-12-10T09:26:38;19.10;92.50
21551;DHT22;10936;49.836;7.078;2022-12-10T09:29:04;19.00;92.50
21551;DHT22;10936;49.836;7.078;2022-12-10T09:31:30;19.10;92.50
21551;DHT22;10936;49.836;7.078;2022-12-10T09:33:55;19.10;92.50
21551;DHT22;10936;49.836;7.078;2022-12-10T09:36:21;19.10;92.40
21551;DHT22;10936;49.836;7.078;2022-12-10T09:38:48;19.10;92.40
21551;DHT22;10936;49.836;7.078;2022-12-10T09:45:06;19.00;92.40
21551;DHT22;10936;49.836;7.078;2022-12-10T09:47:10;19.10;92.40
21551;DHT22;10936;49.836;7.078;2022-12-10T09:52:35;19.10;92.40
21551;DHT22;10936;49.836;7.078;2022-12-10T09:55:09;19.10;92.40
21551;DHT22;10936;49.836;7.078;2022-12-10T09:57:40;19.10;92.40
21551;DHT22;10936;49.836;7.078;2022-12-10T10:02:50;19.10;92.40
21551;DHT22;10936;49.836;7.078;2022-12-10T10:05:25;19.10;92.40
21551;DHT22;10936;49.836;7.078;2022-12-10T10:08:03;19.10;92.40
21551;DHT22;10936;49.836;7.078;2022-12-10T10:10:35;19.10;92.40
21551;DHT22;10936;49.836;7.078;2022-12-10T10:15:36;19.10;92.40
21551;DHT22;10936;49.836;7.078;2022-12-10T10:18:23;19.10;92.40
21551;DHT22;10936;49.836;7.078;2022-12-10T10:20:51;19.10;92.50
21551;DHT22;10936;49.836;7.078;2022-12-10T10:23:16;19.10;92.60
21551;DHT22;10936;49.836;7.078;2022-12-10T10:25:43;19.10;92.60
21551;DHT22;10936;49.836;7.078;2022-12-10T10:28:22;19.10;92.60
21551;DHT22;10936;49.836;7.078;2022-12-10T10:30:48;19.10;92.60
21551;DHT22;10936;49.836;7.078;2022-12-10T10:33:16;19.10;92.60
21551;DHT22;10936;49.836;7.078;2022-12-10T10:35:48;19.10;92.60
21551;DHT22;10936;49.836;7.078;2022-12-10T10:38:25;19.10;92.60
21551;DHT22;10936;49.836;7.078;2022-12-10T10:40:55;19.10;93.00
21551;DHT22;10936;49.836;7.078;2022-12-10T10:46:02;19.10;92.60
21551;DHT22;10936;49.836;7.078;2022-12-10T10:48:30;19.10;92.60
21551;DHT22;10936;49.836;7.078;2022-12-10T10:53:41;19.10;92.50
21551;DHT22;10936;49.836;7.078;2022-12-10T10:56:20;19.10;92.50
21551;DHT22;10936;49.836;7.078;2022-12-10T11:01:48;19.10;92.50
21551;DHT22;10936;49.836;7.078;2022-12-10T11:04:16;19.10;92.50
21551;DHT22;10936;49.836;7.078;2022-12-10T11:06:43;19.10;92.50
21551;DHT22;10936;49.836;7.078;2022-12-10T11:09:21;19.10;92.40
21551;DHT22;10936;49.836;7.078;2022-12-10T11:11:52;19.10;92.40
21551;DHT22;10936;49.836;7.078;2022-12-10T11:14:31;19.10;92.40
21551;DHT22;10936;49.836;7.078;2022-12-10T11:19:35;19.10;92.40
21551;DHT22;10936;49.836;7.078;2022-12-10T11:22:21;19.10;92.40
21551;DHT22;10936;49.836;7.078;2022-12-10T11:24:48;19.10;92.30
21551;DHT22;10936;49.836;7.078;2022-12-10T11:30:03;19.10;92.30
21551;DHT22;10936;49.836;7.078;2022-12-10T11:35:20;19.10;92.30
21551;DHT22;10936;49.836;7.078;2022-12-10T11:40:38;19.10;92.20
21551;DHT22;10936;49.836;7.078;2022-12-10T11:43:42;19.10;92.30
21551;DHT22;10936;49.836;7.078;2022-12-10T11:56:30;19.10;92.20
21551;DHT22;10936;49.836;7.078;2022-12-10T11:59:04;19.10;92.20
21551;DHT22;10936;49.836;7.078;2022-12-10T12:14:59;19.10;92.20
21551;DHT22;10936;49.836;7.078;2022-12-10T12:17:32;19.10;92.20
21551;DHT22;10936;49.836;7.078;2022-12-10T12:20:03;19.10;92.20
21551;DHT22;10936;49.836;7.078;2022-12-10T12:22:40;19.10;92.20
21551;DHT22;10936;49.836;7.078;2022-12-10T12:25:33;19.10;92.20
21551;DHT22;10936;49.836;7.078;2022-12-10T12:30:36;19.10;92.10
21551;DHT22;10936;49.836;7.078;2022-12-10T12:33:18;19.10;92.20
21551;DHT22;10936;49.836;7.078;2022-12-10T12:36:03;19.10;92.20
21551;DHT22;10936;49.836;7.078;2022-12-10T12:38:32;19.20;92.20
21551;DHT22;10936;49.836;7.078;2022-12-10T12:41:05;19.10;92.20
21551;DHT22;10936;49.836;7.078;2022-12-10T12:43:38;19.10;92.20
21551;DHT22;10936;49.836;7.078;2022-12-10T12:46:14;19.10;92.20
21551;DHT22;10936;49.836;7.078;2022-12-10T12:48:52;19.10;92.20
21551;DHT22;10936;49.836;7.078;2022-12-10T12:51:29;19.20;92.20
21551;DHT22;10936;49.836;7.078;2022-12-10T12:53:55;19.20;92.20
21551;DHT22;10936;49.836;7.078;2022-12-10T13:02:05;19.20;92.20
21551;DHT22;10936;49.836;7.078;2022-12-10T13:04:33;19.20;92.20
21551;DHT22;10936;49.836;7.078;2022-12-10T13:09:48;19.20;92.20
21551;DHT22;10936;49.836;7.078;2022-12-10T13:15:13;19.20;92.20
21551;DHT22;10936;49.836;7.078;2022-12-10T13:21:37;19.30;92.20
21551;DHT22;10936;49.836;7.078;2022-12-10T13:23:52;19.30;92.20
21551;DHT22;10936;49.836;7.078;2022-12-10T13:26:28;19.30;92.20
21551;DHT22;10936;49.836;7.078;2022-12-10T13:28:55;19.30;92.20
21551;DHT22;10936;49.836;7.078;2022-12-10T13:31:37;19.30;92.20
21551;DHT22;10936;49.836;7.078;2022-12-10T13:41:34;19.40;92.20
21551;DHT22;10936;49.836;7.078;2022-12-10T13:45:00;19.40;92.20
21551;DHT22;10936;49.836;7.078;2022-12-10T13:47:43;19.40;92.20
21551;DHT22;10936;49.836;7.078;2022-12-10T13:50:19;19.40;92.20
21551;DHT22;10936;49.836;7.078;2022-12-10T13:55:34;19.40;92.20
21551;DHT22;10936;49.836;7.078;2022-12-10T14:01:05;19.40;92.20
21551;DHT22;10936;49.836;7.078;2022-12-10T14:03:44;19.50;92.20
21551;DHT22;10936;49.836;7.078;2022-12-10T14:06:14;19.50;92.20
21551;DHT22;10936;49.836;7.078;2022-12-10T14:08:46;19.40;92.10
21551;DHT22;10936;49.836;7.078;2022-12-10T14:11:22;19.50;92.10
21551;DHT22;10936;49.836;7.078;2022-12-10T14:13:55;19.40;92.10
21551;DHT22;10936;49.836;7.078;2022-12-10T14:16:23;19.40;92.10
21551;DHT22;10936;49.836;7.078;2022-12-10T14:19:05;19.40;92.10
21551;DHT22;10936;49.836;7.078;2022-12-10T14:21:37;19.40;92.10
21551;DHT22;10936;49.836;7.078;2022-12-10T14:24:04;19.40;92.50
21551;DHT22;10936;49.836;7.078;2022-12-10T14:26:32;19.40;92.10
21551;DHT22;10936;49.836;7.078;2022-12-10T14:29:12;19.40;92.10
21551;DHT22;10936;49.836;7.078;2022-12-10T14:31:45;19.40;92.00
21551;DHT22;10936;49.836;7.078;2022-12-10T14:34:15;19.40;92.00
21551;DHT22;10936;49.836;7.078;2022-12-10T14:36:47;19.40;92.00
21551;DHT22;10936;49.836;7.078;2022-12-10T14:39:28;19.30;92.00
21551;DHT22;10936;49.836;7.078;2022-12-10T14:42:00;19.30;91.90
21551;DHT22;10936;49.836;7.078;2022-12-10T14:44:27;19.30;91.90
21551;DHT22;10936;49.836;7.078;2022-12-10T14:47:04;19.30;91.90
21551;DHT22;10936;49.836;7.078;2022-12-10T14:49:30;19.30;91.90
21551;DHT22;10936;49.836;7.078;2022-12-10T14:51:56;19.30;91.90
21551;DHT22;10936;49.836;7.078;2022-12-10T14:54:30;19.30;92.00
21551;DHT22;10936;49.836;7.078;2022-12-10T14:56:59;19.30;92.00
21551;DHT22;10936;49.836;7.078;2022-12-10T14:59:47;19.20;91.90
21551;DHT22;10936;49.836;7.078;2022-12-10T15:02:29;19.20;92.00
21551;DHT22;10936;49.836;7.078;2022-12-10T15:04:55;19.30;92.00
21551;DHT22;10936;49.836;7.078;2022-12-10T15:07:24;19.30;92.00
21551;DHT22;10936;49.836;7.078;2022-12-10T15:09:52;19.30;92.00
21551;DHT22;10936;49.836;7.078;2022-12-10T15:12:38;19.30;92.00
21551;DHT22;10936;49.836;7.078;2022-12-10T15:15:19;19.20;92.00
21551;DHT22;10936;49.836;7.078;2022-12-10T15:20:38;19.20;92.00
21551;DHT22;10936;49.836;7.078;2022-12-10T15:28:33;19.20;92.00
21551;DHT22;10936;49.836;7.078;2022-12-10T15:31:12;19.20;92.00
21551;DHT22;10936;49.836;7.078;2022-12-10T15:33:52;19.20;92.00
21551;DHT22;10936;49.836;7.078;2022-12-10T15:41:53;19.20;92.00
21551;DHT22;10936;49.836;7.078;2022-12-10T15:44:31;19.20;92.00
21551;DHT22;10936;49.836;7.078;2022-12-10T15:47:19;19.20;92.00
21551;DHT22;10936;49.836;7.078;2022-12-10T15:49:46;19.20;92.10
21551;DHT22;10936;49.836;7.078;2022-12-10T15:52:29;19.20;92.10
21551;DHT22;10936;49.836;7.078;2022-12-10T15:54:56;19.20;92.10
21551;DHT22;10936;49.836;7.078;2022-12-10T15:57:30;19.20;92.10
21551;DHT22;10936;49.836;7.078;2022-12-10T15:59:59;19.10;92.10
21551;DHT22;10936;49.836;7.078;2022-12-10T16:04:56;19.10;92.10
21551;DHT22;10936;49.836;7.078;2022-12-10T16:07:22;19.10;92.40
21551;DHT22;10936;49.836;7.078;2022-12-10T16:09:48;19.10;92.10
21551;DHT22;10936;49.836;7.078;2022-12-10T16:12:15;19.10;92.10
21551;DHT22;10936;49.836;7.078;2022-12-10T16:14:47;19.10;92.10
21551;DHT22;10936;49.836;7.078;2022-12-10T16:17:13;19.10;92.10
21551;DHT22;10936;49.836;7.078;2022-12-10T16:19:39;19.10;92.10
21551;DHT22;10936;49.836;7.078;2022-12-10T16:22:05;19.10;92.10
21551;DHT22;10936;49.836;7.078;2022-12-10T16:24:30;19.10;92.10
21551;DHT22;10936;49.836;7.078;2022-12-10T16:26:56;19.10;92.20
21551;DHT22;10936;49.836;7.078;2022-12-10T16:29:22;19.10;92.10
21551;DHT22;10936;49.836;7.078;2022-12-10T16:31:48;19.10;92.20
21551;DHT22;10936;49.836;7.078;2022-12-10T16:34:14;19.10;92.20
21551;DHT22;10936;49.836;7.078;2022-12-10T16:36:39;19.10;92.30
21551;DHT22;10936;49.836;7.078;2022-12-10T16:39:05;19.10;92.20
21551;DHT22;10936;49.836;7.078;2022-12-10T16:41:31;19.10;92.20
21551;DHT22;10936;49.836;7.078;2022-12-10T16:43:57;19.10;92.20
21551;DHT22;10936;49.836;7.078;2022-12-10T16:46:23;19.10;92.20
21551;DHT22;10936;49.836;7.078;2022-12-10T16:48:48;19.10;92.20
21551;DHT22;10936;49.836;7.078;2022-12-10T16:51:26;19.10;92.20
21551;DHT22;10936;49.836;7.078;2022-12-10T16:53:54;19.10;92.20
21551;DHT22;10936;49.836;7.078;2022-12-10T16:56:20;19.10;92.20
21551;DHT22;10936;49.836;7.078;2022-12-10T16:58:46;19.10;92.20
21551;DHT22;10936;49.836;7.078;2022-12-10T17:01:28;19.10;92.20
21551;DHT22;10936;49.836;7.078;2022-12-10T17:03:56;19.10;92.30
21551;DHT22;10936;49.836;7.078;2022-12-10T17:06:24;19.10;92.30
21551;DHT22;10936;49.836;7.078;2022-12-10T17:08:50;19.10;92.30
21551;DHT22;10936;49.836;7.078;2022-12-10T17:11:24;19.10;92.30
21551;DHT22;10936;49.836;7.078;2022-12-10T17:14:30;19.10;92.30
21551;DHT22;10936;49.836;7.078;2022-12-10T17:16:58;19.10;92.70
21551;DHT22;10936;49.836;7.078;2022-12-10T17:19:27;19.10;92.40
21551;DHT22;10936;49.836;7.078;2022-12-10T17:21:53;19.10;92.40
21551;DHT22;10936;49.836;7.078;2022-12-10T17:24:19;19.10;92.40
21551;DHT22;10936;49.836;7.078;2022-12-10T17:26:46;19.10;92.40
21551;DHT22;10936;49.836;7.078;2022-12-10T17:29:18;19.10;92.50
21551;DHT22;10936;49.836;7.078;2022-12-10T17:31:45;19.10;92.50
21551;DHT22;10936;49.836;7.078;2022-12-10T17:34:12;19.10;92.50
21551;DHT22;10936;49.836;7.078;2022-12-10T17:36:39;19.10;92.40
21551;DHT22;10936;49.836;7.078;2022-12-10T17:39:05;19.10;92.40
21551;DHT22;10936;49.836;7.078;2022-12-10T17:41:31;19.10;92.40
21551;DHT22;10936;49.836;7.078;2022-12-10T17:43:56;19.20;92.50
21551;DHT22;10936;49.836;7.078;2022-12-10T17:46:24;19.20;92.50
21551;DHT22;10936;49.836;7.078;2022-12-10T17:48:50;19.20;92.60
21551;DHT22;10936;49.836;7.078;2022-12-10T17:51:15;19.20;93.10
21551;DHT22;10936;49.836;7.078;2022-12-10T17:53:41;19.20;92.90
21551;DHT22;10936;49.836;7.078;2022-12-10T17:56:17;19.20;93.00
21551;DHT22;10936;49.836;7.078;2022-12-10T17:58:43;19.20;93.10
21551;DHT22;10936;49.836;7.078;2022-12-10T18:01:09;19.20;93.20
21551;DHT22;10936;49.836;7.078;2022-12-10T18:03:36;19.20;93.20
21551;DHT22;10936;49.836;7.078;2022-12-10T18:06:04;19.20;93.20
21551;DHT22;10936;49.836;7.078;2022-12-10T18:08:30;19.20;93.20
21551;DHT22;10936;49.836;7.078;2022-12-10T18:10:55;19.20;93.10
21551;DHT22;10936;49.836;7.078;2022-12-10T18:13:22;19.30;93.10
21551;DHT22;10936;49.836;7.078;2022-12-10T18:15:49;19.30;93.10
21551;DHT22;10936;49.836;7.078;2022-12-10T18:18:15;19.20;93.10
21551;DHT22;10936;49.836;7.078;2022-12-10T18:20:40;19.20;93.00
21551;DHT22;10936;49.836;7.078;2022-12-10T18:23:08;19.30;93.10
21551;DHT22;10936;49.836;7.078;2022-12-10T18:25:35;19.20;93.00
21551;DHT22;10936;49.836;7.078;2022-12-10T18:28:04;19.20;93.00
21551;DHT22;10936;49.836;7.078;2022-12-10T18:30:31;19.20;93.00
21551;DHT22;10936;49.836;7.078;2022-12-10T18:32:58;19.20;93.00
21551;DHT22;10936;49.836;7.078;2022-12-10T18:35:23;19.10;93.00
21551;DHT22;10936;49.836;7.078;2022-12-10T18:37:49;19.10;93.00
21551;DHT22;10936;49.836;7.078;2022-12-10T18:40:20;19.10;93.00
21551;DHT22;10936;49.836;7.078;2022-12-10T18:42:49;19.10;93.00
21551;DHT22;10936;49.836;7.078;2022-12-10T18:45:16;19.10;93.00
21551;DHT22;10936;49.836;7.078;2022-12-10T18:47:41;19.10;93.00
21551;DHT22;10936;49.836;7.078;2022-12-10T18:50:23;19.10;93.00
21551;DHT22;10936;49.836;7.078;2022-12-10T18:52:50;19.10;93.00
21551;DHT22;10936;49.836;7.078;2022-12-10T18:55:16;19.10;92.90
21551;DHT22;10936;49.836;7.078;2022-12-10T18:57:42;19.00;92.90
21551;DHT22;10936;49.836;7.078;2022-12-10T19:00:17;19.00;92.90
21551;DHT22;10936;49.836;7.078;2022-12-10T19:02:44;19.00;92.90
21551;DHT22;10936;49.836;7.078;2022-12-10T19:05:10;19.00;92.90
21551;DHT22;10936;49.836;7.078;2022-12-10T19:07:35;19.00;92.90
21551;DHT22;10936;49.836;7.078;2022-12-10T19:10:02;19.00;92.90
21551;DHT22;10936;49.836;7.078;2022-12-10T19:12:29;19.00;92.90
21551;DHT22;10936;49.836;7.078;2022-12-10T19:14:54;19.00;92.90
21551;DHT22;10936;49.836;7.078;2022-12-10T19:17:20;19.00;92.80
21551;DHT22;10936;49.836;7.078;2022-12-10T19:19:45;19.00;92.80
21551;DHT22;10936;49.836;7.078;2022-12-10T19:22:11;19.00;92.90
21551;DHT22;10936;49.836;7.078;2022-12-10T19:24:37;19.00;92.90
21551;DHT22;10936;49.836;7.078;2022-12-10T19:27:02;19.00;92.80
21551;DHT22;10936;49.836;7.078;2022-12-10T19:29:28;19.00;92.80
21551;DHT22;10936;49.836;7.078;2022-12-10T19:31:54;18.90;92.80
21551;DHT22;10936;49.836;7.078;2022-12-10T19:34:20;18.90;92.80
21551;DHT22;10936;49.836;7.078;2022-12-10T19:36:46;18.90;92.80
21551;DHT22;10936;49.836;7.078;2022-12-10T19:39:17;18.90;92.80
21551;DHT22;10936;49.836;7.078;2022-12-10T19:41:43;18.90;92.80
21551;DHT22;10936;49.836;7.078;2022-12-10T19:44:09;18.90;92.80
21551;DHT22;10936;49.836;7.078;2022-12-10T19:46:34;18.90;92.80
21551;DHT22;10936;49.836;7.078;2022-12-10T19:49:00;18.90;92.80
21551;DHT22;10936;49.836;7.078;2022-12-10T19:51:25;18.90;92.80
21551;DHT22;10936;49.836;7.078;2022-12-10T19:53:51;18.90;92.80
21551;DHT22;10936;49.836;7.078;2022-12-10T19:56:19;18.90;92.80
21551;DHT22;10936;49.836;7.078;2022-12-10T19:58:46;18.90;92.80
21551;DHT22;10936;49.836;7.078;2022-12-10T20:01:11;18.90;92.80
21551;DHT22;10936;49.836;7.078;2022-12-10T20:03:37;18.80;92.80
21551;DHT22;10936;49.836;7.078;2022-12-10T20:06:12;18.80;92.70
21551;DHT22;10936;49.836;7.078;2022-12-10T20:08:38;18.80;92.70
21551;DHT22;10936;49.836;7.078;2022-12-10T20:11:03;18.90;92.80
21551;DHT22;10936;49.836;7.078;2022-12-10T20:13:29;18.80;92.70
21551;DHT22;10936;49.836;7.078;2022-12-10T20:15:55;18.80;92.70
21551;DHT22;10936;49.836;7.078;2022-12-10T20:18:20;18.80;92.70
21551;DHT22;10936;49.836;7.078;2022-12-10T20:20:46;18.80;92.70
21551;DHT22;10936;49.836;7.078;2022-12-10T20:23:12;18.80;92.70
21551;DHT22;10936;49.836;7.078;2022-12-10T20:25:37;18.80;92.70
21551;DHT22;10936;49.836;7.078;2022-12-10T20:28:03;18.80;92.70
21551;DHT22;10936;49.836;7.078;2022-12-10T20:30:29;18.80;92.70
21551;DHT22;10936;49.836;7.078;2022-12-10T20:32:55;18.80;92.70
21551;DHT22;10936;49.836;7.078;2022-12-10T20:35:22;18.80;92.70
21551;DHT22;10936;49.836;7.078;2022-12-10T20:37:49;18.80;92.70
21551;DHT22;10936;49.836;7.078;2022-12-10T20:40:18;18.80;92.70
21551;DHT22;10936;49.836;7.078;2022-12-10T20:42:44;18.80;92.70
21551;DHT22;10936;49.836;7.078;2022-12-10T20:45:09;18.80;92.70
21551;DHT22;10936;49.836;7.078;2022-12-10T20:47:35;18.80;92.70
21551;DHT22;10936;49.836;7.078;2022-12-10T20:50:01;18.70;92.70
21551;DHT22;10936;49.836;7.078;2022-12-10T20:52:26;18.70;92.70
21551;DHT22;10936;49.836;7.078;2022-12-10T20:54:52;18.80;92.70
21551;DHT22;10936;49.836;7.078;2022-12-10T20:57:17;18.80;92.70
21551;DHT22;10936;49.836;7.078;2022-12-10T20:59:43;18.70;92.70
21551;DHT22;10936;49.836;7.078;2022-12-10T21:02:09;18.70;92.70
21551;DHT22;10936;49.836;7.078;2022-12-10T21:04:35;18.80;92.70
21551;DHT22;10936;49.836;7.078;2022-12-10T21:07:01;18.70;92.70
21551;DHT22;10936;49.836;7.078;2022-12-10T21:09:26;18.70;92.70
21551;DHT22;10936;49.836;7.078;2022-12-10T21:11:52;18.70;92.70
21551;DHT22;10936;49.836;7.078;2022-12-10T21:14:17;18.70;92.70
21551;DHT22;10936;49.836;7.078;2022-12-10T21:16:43;18.70;92.70
21551;DHT22;10936;49.836;7.078;2022-12-10T21:19:10;18.80;92.70
21551;DHT22;10936;49.836;7.078;2022-12-10T21:21:36;18.70;92.70
21551;DHT22;10936;49.836;7.078;2022-12-10T21:24:02;18.70;92.70
21551;DHT22;10936;49.836;7.078;2022-12-10T21:26:28;18.70;92.70
21551;DHT22;10936;49.836;7.078;2022-12-10T21:28:53;18.80;92.70
21551;DHT22;10936;49.836;7.078;2022-12-10T21:31:22;18.70;92.70
21551;DHT22;10936;49.836;7.078;2022-12-10T21:33:48;18.70;92.70
21551;DHT22;10936;49.836;7.078;2022-12-10T21:36:16;18.70;92.70
21551;DHT22;10936;49.836;7.078;2022-12-10T21:38:42;18.70;92.70
21551;DHT22;10936;49.836;7.078;2022-12-10T21:41:09;18.70;92.70
21551;DHT22;10936;49.836;7.078;2022-12-10T21:43:53;18.70;92.70
21551;DHT22;10936;49.836;7.078;2022-12-10T21:46:19;18.70;92.60
21551;DHT22;10936;49.836;7.078;2022-12-10T21:48:44;18.70;92.70
21551;DHT22;10936;49.836;7.078;2022-12-10T21:51:10;18.70;92.70
21551;DHT22;10936;49.836;7.078;2022-12-10T21:53:36;18.70;92.70
21551;DHT22;10936;49.836;7.078;2022-12-10T21:56:09;18.70;92.70
21551;DHT22;10936;49.836;7.078;2022-12-10T21:58:35;18.70;92.70
21551;DHT22;10936;49.836;7.078;2022-12-10T22:01:01;18.70;92.70
21551;DHT22;10936;49.836;7.078;2022-12-10T22:03:27;18.70;92.70
21551;DHT22;10936;49.836;7.078;2022-12-10T22:05:53;18.70;92.60
21551;DHT22;10936;49.836;7.078;2022-12-10T22:08:19;18.70;92.70
21551;DHT22;10936;49.836;7.078;2022-12-10T22:10:45;18.70;92.60
21551;DHT22;10936;49.836;7.078;2022-12-10T22:13:10;18.70;92.60
21551;DHT22;10936;49.836;7.078;2022-12-10T22:15:40;18.70;92.60
21551;DHT22;10936;49.836;7.078;2022-12-10T22:18:06;18.70;92.60
21551;DHT22;10936;49.836;7.078;2022-12-10T22:20:36;18.60;92.60
21551;DHT22;10936;49.836;7.078;2022-12-10T22:23:03;18.60;92.60